Date,TemperatureHighF,TemperatureAvgF,TemperatureLowF,DewpointHighF,DewpointAvgF,DewpointLowF,HumidityHigh,HumidityAvg,HumidityLow,PressureMaxIn,PressureMinIn,WindSpeedMaxMPH,WindSpeedAvgMPH,GustSpeedMaxMPH,PrecipitationSumIn
2013-3-1,50,38,26,28,24,19,76,58,41,30.32,30.20,6,0,6,0.00
2013-3-2,59,47,31,31,28,24,76,51,31,30.31,30.05,0,0,0,0.00
2013-3-3,62,50,41,31,28,25,66,43,27,30.05,29.66,0,0,2,0.00
2013-3-4,50,31,20,31,26,17,97,82,47,30.21,29.69,0,0,12,0.02
2013-3-5,41,27,10,26,19,9,95,74,53,30.24,30.11,0,0,0,0.05
2013-3-6,60,40,23,32,25,20,92,62,26,30.12,29.83,0,0,0,0.00
2013-3-7,65,49,34,33,28,23,68,47,23,29.98,29.85,0,0,0,0.00
2013-3-8,48,40,33,35,33,28,90,76,55,29.98,29.67,0,0,0,0.00
2013-3-9,36,32,25,34,30,21,100,94,82,30.08,29.62,11,0,12,0.11
2013-3-10,43,31,17,26,20,14,90,67,42,30.13,30.02,0,0,0,0.34
2013-3-11,53,41,30,34,26,21,99,60,34,30.16,29.90,5,0,25,0.17
2013-3-12,37,31,24,32,29,24,100,92,78,30.31,30.15,0,0,0,0.23
2013-3-13,64,48,31,39,31,27,96,57,27,30.27,30.17,0,0,0,0.00
2013-3-14,70,56,41,33,28,17,65,37,14,30.34,30.18,0,0,0,0.00
2013-3-15,72,62,49,30,27,23,45,28,17,30.17,29.89,0,0,0,0.00
2013-3-16,56,47,40,39,35,29,82,63,35,30.03,29.82,0,0,0,0.00
2013-3-17,57,45,36,33,28,18,83,55,23,29.83,29.53,24,0,29,0.72
2013-3-18,48,40,28,24,19,16,69,45,30,29.94,29.83,7,0,22,0.02
2013-3-19,52,42,31,25,13,-2,66,35,11,30.36,29.92,0,0,16,0.00
2013-3-20,54,39,24,31,24,19,85,57,33,30.35,29.73,0,0,11,0.00
2013-3-21,58,45,36,35,27,18,70,50,29,29.82,29.51,10,0,25,0.43
2013-3-22,47,35,27,30,25,20,99,69,44,29.89,29.60,7,0,14,0.00
2013-3-23,27,20,15,27,19,13,100,96,93,30.16,29.87,1,0,13,0.00
2013-3-24,26,18,6,20,14,5,97,86,71,30.18,30.04,0,0,0,0.15
2013-3-25,33,23,11,19,16,9,97,76,49,30.23,30.16,0,0,1,0.11
2013-3-26,53,34,20,35,24,15,89,67,36,30.16,29.90,0,0,0,0.05
2013-3-27,55,43,31,40,33,26,88,70,48,30.10,29.99,0,0,0,0.00
2013-3-28,63,48,34,38,35,32,95,66,31,30.14,30.05,0,0,0,0.00
2013-3-29,66,52,38,39,34,32,80,55,30,30.16,30.07,0,0,0,0.00
2013-3-30,66,52,39,41,34,28,85,55,25,30.26,30.03,0,0,1,0.00
2013-3-31,70,53,35,38,30,14,92,51,12,30.23,29.94,0,0,0,0.00